createdAt,value
2023-04-25T00:02:10.322Z,93.60
2023-04-25T00:06:13.172Z,94.10
2023-04-25T00:10:15.711Z,94.40
2023-04-25T00:14:17.952Z,94.40
2023-04-25T00:18:21.545Z,94.10
2023-04-25T00:22:23.658Z,94.00
2023-04-25T00:26:26.176Z,94.30
2023-04-25T00:30:28.393Z,94.20
2023-04-25T00:34:30.457Z,94.30
2023-04-25T00:38:32.648Z,94.40
2023-04-25T00:42:37.073Z,94.40
2023-04-25T00:46:40.847Z,94.10
2023-04-25T00:50:43.652Z,94.00
2023-04-25T00:54:45.868Z,94.00
2023-04-25T00:58:48.795Z,94.00
2023-04-25T01:02:51.568Z,94.50
2023-04-25T01:06:54.159Z,94.50
2023-04-25T01:10:56.276Z,94.50
2023-04-25T01:14:58.535Z,94.70
2023-04-25T01:19:01.131Z,94.40
2023-04-25T01:23:04.159Z,94.40
2023-04-25T01:27:07.260Z,94.60
2023-04-25T01:31:10.311Z,94.50
2023-04-25T01:35:13.336Z,94.30
2023-04-25T01:39:16.256Z,94.20
2023-04-25T01:43:18.323Z,94.30
2023-04-25T01:47:21.263Z,94.40
2023-04-25T01:51:23.403Z,94.10
2023-04-25T01:55:25.794Z,94.60
2023-04-25T01:59:42.925Z,95.00
2023-04-25T02:03:53.156Z,94.90
2023-04-25T02:08:10.762Z,94.70
2023-04-25T02:12:13.295Z,94.60
2023-04-25T02:16:36.232Z,94.40
2023-04-25T02:20:38.686Z,94.40
2023-04-25T02:24:40.769Z,94.30
2023-04-25T02:28:42.795Z,94.30
2023-04-25T02:32:44.957Z,94.40
2023-04-25T02:36:46.890Z,94.50
2023-04-25T02:40:48.793Z,94.80
2023-04-25T02:44:50.845Z,95.00
2023-04-25T02:48:52.843Z,94.40
2023-04-25T02:52:54.902Z,94.60
2023-04-25T02:57:03.883Z,94.10
2023-04-25T03:01:11.260Z,94.40
2023-04-25T03:05:13.364Z,94.70
2023-04-25T03:09:15.515Z,94.50
2023-04-25T03:13:17.691Z,94.70
2023-04-25T03:17:19.695Z,95.60
2023-04-25T03:21:21.757Z,95.30
2023-04-25T03:25:23.655Z,94.90
2023-04-25T03:29:27.412Z,94.80
2023-04-25T03:33:30.922Z,94.60
2023-04-25T03:37:33.312Z,94.60
2023-04-25T03:41:35.394Z,94.60
2023-04-25T03:45:41.928Z,94.60
2023-04-25T03:49:44.102Z,94.70
2023-04-25T03:53:46.432Z,94.70
2023-04-25T03:57:51.340Z,94.60
2023-04-25T04:01:53.747Z,94.60
2023-04-25T04:05:55.899Z,94.90
2023-04-25T04:09:57.915Z,95.30
2023-04-25T04:14:11.741Z,95.30
2023-04-25T04:18:17.808Z,95.20
2023-04-25T04:22:19.944Z,95.20
2023-04-25T04:26:24.469Z,95.30
2023-04-25T04:30:43.399Z,95.40
2023-04-25T04:34:45.742Z,95.40
2023-04-25T04:38:50.682Z,95.50
2023-04-25T04:43:01.541Z,95.80
2023-04-25T04:47:24.709Z,95.70
2023-04-25T04:51:39.772Z,95.80
2023-04-25T04:55:56.328Z,96.20
2023-04-25T05:00:24.090Z,96.30
2023-04-25T05:04:52.815Z,96.00
2023-04-25T05:09:02.668Z,96.20
2023-04-25T05:13:27.446Z,96.10
2023-04-25T05:17:44.548Z,95.80
2023-04-25T05:21:59.858Z,95.20
2023-04-25T05:26:20.025Z,95.10
2023-04-25T05:30:35.449Z,94.90
2023-04-25T05:35:00.716Z,94.80
2023-04-25T05:39:07.502Z,95.20
2023-04-25T05:43:28.041Z,95.10
2023-04-25T05:47:37.835Z,95.30
2023-04-25T05:51:54.370Z,94.80
2023-04-25T05:56:09.741Z,94.90
2023-04-25T06:00:14.148Z,93.90
2023-04-25T06:04:16.649Z,94.10
2023-04-25T06:08:19.006Z,94.60
2023-04-25T06:12:21.283Z,94.90
2023-04-25T06:16:26.949Z,94.60
2023-04-25T06:20:29.683Z,94.50
2023-04-25T06:24:35.124Z,95.00
2023-04-25T06:28:39.375Z,94.80
2023-04-25T06:32:41.964Z,94.50
2023-04-25T06:36:45.543Z,94.50
2023-04-25T06:40:50.685Z,94.20
2023-04-25T06:44:53.831Z,94.70
2023-04-25T06:48:56.648Z,93.90
2023-04-25T06:52:58.806Z,93.50
2023-04-25T06:57:01.948Z,93.80
2023-04-25T07:01:04.819Z,93.80
2023-04-25T07:05:08.090Z,93.40
2023-04-25T07:09:11.169Z,93.00
2023-04-25T07:13:13.900Z,92.90
2023-04-25T07:17:16.448Z,92.90
2023-04-25T07:21:19.161Z,93.30
2023-04-25T07:25:23.148Z,92.10
2023-04-25T07:29:26.224Z,91.90
2023-04-25T07:33:28.844Z,91.80
2023-04-25T07:37:30.853Z,92.40
2023-04-25T07:41:41.418Z,92.80
2023-04-25T07:45:48.041Z,92.20
2023-04-25T07:49:52.025Z,91.90
2023-04-25T07:53:54.242Z,91.90
2023-04-25T07:57:57.560Z,91.50
2023-04-25T08:02:00.019Z,91.10
2023-04-25T08:06:04.845Z,91.40
2023-04-25T08:10:14.815Z,91.60
2023-04-25T08:14:18.405Z,91.80
2023-04-25T08:18:21.480Z,91.90
2023-04-25T08:22:25.270Z,91.60
2023-04-25T08:26:38.287Z,92.20
2023-04-25T08:30:41.683Z,92.10
2023-04-25T08:34:47.827Z,92.10
2023-04-25T08:38:51.168Z,92.20
2023-04-25T08:42:56.622Z,91.90
2023-04-25T08:46:59.193Z,92.30
2023-04-25T08:55:17.141Z,93.50
2023-04-25T08:59:19.951Z,92.60
2023-04-25T09:03:22.967Z,92.20
2023-04-25T09:07:26.819Z,91.10
2023-04-25T09:11:30.829Z,90.50
2023-04-25T09:15:34.070Z,90.80
2023-04-25T09:19:46.821Z,91.20
2023-04-25T09:23:56.679Z,91.10
2023-04-25T09:28:00.209Z,90.80
2023-04-25T09:32:20.634Z,91.20
2023-04-25T09:36:28.163Z,91.40
2023-04-25T09:40:57.921Z,93.40
2023-04-25T09:45:16.126Z,99.90
2023-04-25T09:49:21.257Z,99.90
2023-04-25T09:53:37.266Z,99.90
2023-04-25T09:58:06.214Z,99.90
2023-04-25T10:02:10.480Z,99.90
2023-04-25T10:06:20.775Z,99.90
2023-04-25T10:10:29.617Z,99.30
2023-04-25T10:14:33.333Z,98.20
2023-04-25T10:18:35.534Z,98.10
2023-04-25T10:22:45.256Z,98.70
2023-04-25T10:26:48.954Z,97.90
2023-04-25T10:31:09.565Z,99.10
2023-04-25T10:35:20.450Z,99.00
2023-04-25T10:39:24.770Z,98.30
2023-04-25T10:43:33.398Z,97.90
2023-04-25T10:47:45.935Z,97.50
2023-04-25T10:51:55.418Z,97.70
2023-04-25T10:55:57.996Z,97.10
2023-04-25T11:00:14.625Z,96.80
2023-04-25T11:04:35.330Z,96.60
2023-04-25T11:08:51.435Z,97.40
2023-04-25T11:12:53.740Z,97.30
2023-04-25T11:17:00.869Z,97.20
2023-04-25T11:21:04.213Z,99.30
2023-04-25T11:25:07.910Z,99.50
2023-04-25T11:29:10.611Z,99.50
2023-04-25T11:33:12.739Z,98.70
2023-04-25T11:37:15.668Z,97.90
2023-04-25T11:41:17.721Z,98.60
2023-04-25T11:45:19.948Z,98.90
2023-04-25T11:49:23.053Z,98.90
2023-04-25T11:53:25.918Z,99.20
2023-04-25T11:57:28.093Z,99.20
2023-04-25T12:01:36.079Z,99.90
2023-04-25T12:05:38.982Z,99.90
2023-04-25T12:09:42.550Z,99.90
2023-04-25T12:13:45.328Z,99.70
2023-04-25T12:17:49.646Z,99.90
2023-04-25T12:25:57.471Z,99.90
2023-04-25T12:29:59.702Z,99.90
2023-04-25T12:34:02.104Z,99.90
2023-04-25T12:38:03.948Z,99.90
2023-04-25T12:42:07.953Z,99.90
2023-04-25T12:46:11.502Z,99.90
2023-04-25T12:50:13.925Z,99.90
2023-04-25T12:54:15.957Z,99.90
2023-04-25T12:58:19.621Z,99.90
2023-04-25T13:02:21.819Z,99.90
2023-04-25T13:06:24.183Z,99.90
2023-04-25T13:10:26.119Z,99.90
2023-04-25T13:14:28.239Z,99.90
2023-04-25T13:18:31.362Z,99.90
2023-04-25T13:22:33.375Z,99.90
2023-04-25T13:26:35.690Z,99.70
2023-04-25T13:30:38.024Z,99.60
2023-04-25T13:34:40.445Z,98.90
2023-04-25T13:38:45.020Z,99.90
2023-04-25T13:42:47.248Z,98.60
2023-04-25T13:46:49.182Z,98.60
2023-04-25T13:50:51.690Z,98.80
2023-04-25T13:54:53.941Z,98.50
2023-04-25T13:58:56.038Z,98.40
2023-04-25T14:02:58.276Z,97.90
2023-04-25T14:07:00.738Z,97.80
2023-04-25T14:11:02.671Z,98.30
2023-04-25T14:15:05.043Z,96.60
2023-04-25T14:19:07.206Z,97.60
2023-04-25T14:23:09.636Z,97.00
2023-04-25T14:27:12.851Z,96.90
2023-04-25T14:31:14.931Z,96.70
2023-04-25T14:35:17.031Z,96.40
2023-04-25T14:39:19.606Z,95.50
2023-04-25T14:43:21.630Z,95.90
2023-04-25T14:47:23.674Z,96.90
2023-04-25T14:51:26.638Z,97.30
2023-04-25T14:55:28.862Z,96.40
2023-04-25T14:59:30.925Z,95.10
2023-04-25T15:07:49.602Z,95.60
2023-04-25T15:11:52.295Z,96.00
2023-04-25T15:15:55.311Z,95.90
2023-04-25T15:19:57.703Z,95.80
2023-04-25T15:24:01.992Z,94.40
2023-04-25T15:28:04.275Z,94.30
2023-04-25T15:32:06.477Z,94.90
2023-04-25T15:36:09.230Z,94.30
2023-04-25T15:40:13.592Z,94.60
2023-04-25T15:44:15.813Z,95.30
2023-04-25T15:48:17.750Z,95.80
2023-04-25T15:52:21.919Z,94.80
2023-04-25T15:56:24.231Z,95.50
2023-04-25T16:00:26.187Z,95.60
2023-04-25T16:04:35.344Z,96.20
2023-04-25T16:08:37.557Z,96.70
2023-04-25T16:12:40.959Z,96.10
2023-04-25T16:16:44.948Z,97.90
2023-04-25T16:20:47.041Z,99.90
2023-04-25T16:24:49.334Z,99.90
2023-04-25T16:28:51.503Z,99.90
2023-04-25T16:32:53.799Z,99.90
2023-04-25T16:36:56.868Z,99.90
2023-04-25T16:40:58.726Z,99.90
2023-04-25T16:45:00.776Z,99.90
2023-04-25T16:49:02.902Z,99.90
2023-04-25T16:53:05.132Z,99.50
2023-04-25T16:57:10.462Z,99.90
2023-04-25T17:01:16.185Z,99.70
2023-04-25T17:05:18.315Z,99.90
2023-04-25T17:09:20.342Z,99.90
2023-04-25T17:13:22.233Z,99.90
2023-04-25T17:17:32.999Z,99.90
2023-04-25T17:21:35.059Z,99.90
2023-04-25T17:25:37.221Z,99.90
2023-04-25T17:29:39.244Z,99.90
2023-04-25T17:33:41.447Z,99.90
2023-04-25T17:37:44.036Z,99.90
2023-04-25T17:41:46.310Z,99.90
2023-04-25T17:45:48.335Z,99.90
2023-04-25T17:49:51.515Z,99.90
2023-04-25T17:53:53.655Z,99.90
2023-04-25T17:57:56.239Z,99.90
2023-04-25T18:02:00.054Z,99.90
2023-04-25T18:06:02.252Z,99.70
2023-04-25T18:10:05.898Z,99.00
2023-04-25T18:14:14.140Z,98.70
2023-04-25T18:18:20.293Z,98.20
2023-04-25T18:22:22.678Z,98.00
2023-04-25T18:26:24.745Z,98.20
2023-04-25T18:30:27.130Z,97.60
2023-04-25T18:34:29.242Z,97.70
2023-04-25T18:38:36.053Z,97.70
2023-04-25T18:42:38.416Z,98.10
2023-04-25T18:46:43.519Z,97.80
2023-04-25T18:50:45.618Z,97.80
2023-04-25T18:54:48.148Z,97.30
2023-04-25T18:58:53.990Z,97.20
2023-04-25T19:02:58.088Z,96.80
2023-04-25T19:07:00.610Z,97.20
2023-04-25T19:11:14.207Z,96.90
2023-04-25T19:15:22.714Z,96.90
2023-04-25T19:19:24.688Z,98.70
2023-04-25T19:23:26.785Z,98.30
2023-04-25T19:27:29.074Z,98.10
2023-04-25T19:31:31.652Z,98.10
2023-04-25T19:35:34.060Z,97.80
2023-04-25T19:39:36.205Z,97.70
2023-04-25T19:43:38.076Z,97.90
2023-04-25T19:47:40.865Z,97.80
2023-04-25T19:51:43.411Z,97.80
2023-04-25T19:55:45.552Z,98.00
2023-04-25T19:59:48.305Z,98.10
2023-04-25T20:03:51.729Z,98.20
2023-04-25T20:07:54.141Z,98.20
2023-04-25T20:11:56.369Z,98.20
2023-04-25T20:16:00.557Z,97.60
2023-04-25T20:20:06.470Z,97.80
2023-04-25T20:24:08.605Z,98.20
2023-04-25T20:28:10.843Z,98.50
2023-04-25T20:32:13.115Z,97.80
2023-04-25T20:36:15.632Z,98.10
2023-04-25T20:40:17.614Z,97.90
2023-04-25T20:44:22.756Z,98.10
2023-04-25T20:48:24.955Z,98.50
2023-04-25T20:52:27.119Z,98.50
2023-04-25T20:56:29.424Z,98.50
2023-04-25T21:00:31.417Z,98.70
2023-04-25T21:04:33.425Z,98.30
2023-04-25T21:08:35.547Z,98.10
2023-04-25T21:12:37.790Z,98.10
2023-04-25T21:16:40.900Z,98.00
2023-04-25T21:20:43.058Z,97.80
2023-04-25T21:24:47.663Z,98.10
2023-04-25T21:28:50.136Z,98.40
2023-04-25T21:32:53.326Z,98.20
2023-04-25T21:36:56.089Z,97.80
2023-04-25T21:40:58.539Z,97.80
2023-04-25T21:45:02.519Z,97.90
2023-04-25T21:49:04.459Z,98.20
2023-04-25T21:53:07.179Z,98.40
2023-04-25T21:57:09.185Z,98.20
2023-04-25T22:01:11.490Z,98.00
2023-04-25T22:05:13.461Z,98.20
2023-04-25T22:09:17.863Z,98.30
2023-04-25T22:13:20.277Z,98.20
2023-04-25T22:17:25.859Z,98.30
2023-04-25T22:21:28.166Z,98.30
2023-04-25T22:25:31.754Z,98.20
2023-04-25T22:29:34.262Z,98.20
2023-04-25T22:33:36.530Z,98.40
2023-04-25T22:37:38.669Z,98.40
2023-04-25T22:41:40.830Z,98.70
2023-04-25T22:45:42.939Z,98.90
2023-04-25T22:49:45.589Z,99.00
2023-04-25T22:53:47.696Z,99.00
2023-04-25T22:57:49.548Z,98.70
2023-04-25T23:01:51.852Z,98.40
2023-04-25T23:05:54.048Z,98.60
2023-04-25T23:09:56.076Z,98.20
2023-04-25T23:13:58.934Z,98.10
2023-04-25T23:18:02.275Z,98.00
2023-04-25T23:22:05.901Z,98.50
2023-04-25T23:26:10.292Z,98.40
2023-04-25T23:30:12.719Z,98.20
2023-04-25T23:34:14.786Z,98.00
2023-04-25T23:38:17.237Z,97.80
2023-04-25T23:42:19.270Z,98.00
2023-04-25T23:46:22.154Z,98.00
2023-04-25T23:50:24.369Z,97.60
2023-04-25T23:54:26.852Z,97.50
2023-04-25T23:58:28.935Z,97.70
